Time;durP1;ratioP1;P1;durP2;ratioP2;P2;SDS_P1;SDS_P2;PMS_P1;PMS_P2;Temp;Humidity;BMP_temperature;BMP_pressure;BME280_temperature;BME280_humidity;BME280_pressure;Samples;Min_cycle;Max_cycle;Signal;HPM_P1;HPM_P2
2022/09/29 00:00:26;;;;;;;12.15;2.78;;;;;;;14.34;72.18;100270.75;5032329;28;20058;-64
2022/09/29 00:03:36;;;;;;;6.97;2.13;;;;;;;14.31;71.18;100244.56;5017727;28;20112;-66
2022/09/29 00:06:35;;;;;;;10.48;2.35;;;;;;;14.18;72.89;100260.72;5032130;28;20045;-64
2022/09/29 00:09:17;;;;;;;13.73;2.67;;;;;;;14.28;72.59;100261.28;4992176;28;20053;-65
2022/09/29 00:12:01;;;;;;;13.32;2.92;;;;;;;14.03;72.26;100263.81;5030358;28;20053;-65
2022/09/29 00:14:41;;;;;;;11.13;2.72;;;;;;;13.67;73.93;100269.25;5031394;28;20105;-64
2022/09/29 00:17:35;;;;;;;12.85;2.88;;;;;;;13.37;75.37;100266.59;5051469;28;20056;-64
2022/09/29 00:20:41;;;;;;;20.75;3.08;;;;;;;13.17;76.74;100258.38;5072326;28;20470;-64
2022/09/29 00:23:18;;;;;;;9.48;2.97;;;;;;;13.17;77.83;100263.63;4986347;28;20049;-65
2022/09/29 00:26:16;;;;;;;22.88;3.58;;;;;;;13.26;78.35;100231.03;5072004;28;20074;-64
2022/09/29 00:29:07;;;;;;;20.30;2.80;;;;;;;13.35;77.13;100262.28;5054362;28;20361;-65
2022/09/29 00:31:54;;;;;;;7.25;2.38;;;;;;;13.35;76.37;100262.28;5026227;28;20094;-64
2022/09/29 00:34:54;;;;;;;12.82;2.42;;;;;;;13.21;77.25;100260.03;5072366;28;20091;-66
2022/09/29 00:37:46;;;;;;;9.73;2.15;;;;;;;13.08;78.80;100261.22;5043832;28;20338;-63
2022/09/29 00:40:29;;;;;;;17.95;2.30;;;;;;;13.10;78.50;100277.78;5072697;28;20055;-65
2022/09/29 00:43:17;;;;;;;10.13;2.67;;;;;;;13.33;79.06;100275.47;5055997;28;20052;-64
2022/09/29 00:46:09;;;;;;;7.90;2.45;;;;;;;13.34;78.36;100278.94;5071876;28;20098;-64
2022/09/29 00:49:01;;;;;;;8.02;2.50;;;;;;;13.54;77.61;100257.38;5070833;28;20060;-64
2022/09/29 00:51:43;;;;;;;14.30;2.92;;;;;;;13.50;77.95;100280.22;5071362;28;20201;-65
2022/09/29 00:54:22;;;;;;;12.65;3.08;;;;;;;13.42;78.62;100273.47;5071067;28;20048;-64
2022/09/29 01:00:07;;;;;;;9.57;2.63;;;;;;;13.72;78.14;100293.59;5072406;28;20052;-64
2022/09/29 01:03:01;;;;;;;9.48;2.55;;;;;;;13.59;77.81;100223.97;5070465;28;20083;-64
2022/09/29 01:05:45;;;;;;;11.88;2.63;;;;;;;13.97;75.17;100292.88;5072102;28;20080;-67
2022/09/29 01:08:38;;;;;;;9.25;2.40;;;;;;;13.88;74.99;100277.38;5072635;28;20061;-65
2022/09/29 01:11:27;;;;;;;8.95;2.60;;;;;;;14.01;74.71;100290.13;5068447;28;20420;-66
2022/09/29 01:14:15;;;;;;;7.43;2.42;;;;;;;13.85;76.10;100288.00;5072095;28;20053;-64
2022/09/29 01:17:01;;;;;;;11.77;2.28;;;;;;;13.99;76.25;100291.06;5070368;28;20057;-64
2022/09/29 01:19:48;;;;;;;8.25;2.95;;;;;;;13.93;74.43;100297.38;5071649;28;20064;-65
2022/09/29 01:23:01;;;;;;;10.63;2.38;;;;;;;14.10;76.17;100283.72;5071136;28;20052;-64
2022/09/29 01:26:20;;;;;;;9.77;2.90;;;;;;;14.28;73.67;100299.81;5027654;28;20053;-64
2022/09/29 01:29:30;;;;;;;7.35;2.60;;;;;;;14.17;72.38;100300.16;5071557;28;20037;-65
2022/09/29 01:32:23;;;;;;;10.02;2.58;;;;;;;14.24;72.44;100302.56;5071305;28;20240;-65
2022/09/29 01:35:20;;;;;;;7.68;2.50;;;;;;;14.31;72.49;100312.91;5071294;28;20082;-65
2022/09/29 01:38:09;;;;;;;11.70;2.80;;;;;;;14.06;73.47;100324.16;5070835;28;20059;-65
2022/09/29 01:40:57;;;;;;;10.73;2.60;;;;;;;13.87;74.53;100322.97;5072105;28;20052;-66
2022/09/29 01:43:44;;;;;;;9.45;2.65;;;;;;;13.81;74.71;100303.00;5070093;28;20068;-64
2022/09/29 01:46:36;;;;;;;11.77;2.92;;;;;;;13.71;74.84;100323.41;5070491;28;20045;-64
2022/09/29 01:49:33;;;;;;;16.20;3.60;;;;;;;13.75;74.48;100314.53;5070380;28;20055;-65
2022/09/29 01:52:14;;;;;;;10.85;2.30;;;;;;;13.75;74.17;100324.16;5070460;28;20087;-66
2022/09/29 01:55:01;;;;;;;8.27;2.72;;;;;;;13.76;73.91;100331.16;5018644;28;20115;-64
2022/09/29 01:57:51;;;;;;;7.40;2.30;;;;;;;13.73;73.80;100326.84;5070187;28;20359;-64
2022/09/29 02:03:29;;;;;;;5.90;2.40;;;;;;;14.04;72.24;100318.06;5071302;28;20048;-66
2022/09/29 02:09:44;;;;;;;8.20;2.55;;;;;;;14.59;68.69;100312.91;5042549;28;20079;-65
2022/09/29 02:12:39;;;;;;;5.40;2.08;;;;;;;14.69;67.72;100319.59;5019736;28;20067;-65
2022/09/29 02:15:31;;;;;;;10.63;2.78;;;;;;;14.81;68.67;100319.19;5029588;28;20067;-64
2022/09/29 02:18:18;;;;;;;15.18;2.78;;;;;;;14.95;67.73;100302.06;5069918;28;20052;-64
2022/09/29 02:21:11;;;;;;;5.65;2.33;;;;;;;15.01;67.56;100321.16;5025797;28;20064;-64
2022/09/29 02:24:02;;;;;;;6.73;2.23;;;;;;;15.03;68.00;100314.09;5021476;28;20569;-63
2022/09/29 02:27:18;;;;;;;8.70;2.10;;;;;;;15.24;65.70;100322.16;5041378;28;20329;-64
2022/09/29 02:30:10;;;;;;;6.50;2.10;;;;;;;15.33;64.68;100316.56;5043723;28;20321;-64
2022/09/29 02:32:48;;;;;;;7.87;2.30;;;;;;;15.23;63.45;100310.75;5069059;28;20320;-65
2022/09/29 02:35:29;;;;;;;5.60;2.33;;;;;;;15.19;63.01;100318.81;5070813;28;20791;-66
2022/09/29 02:38:25;;;;;;;6.80;2.27;;;;;;;15.33;65.58;100316.56;5070903;28;20322;-66
2022/09/29 02:41:13;;;;;;;6.83;2.00;;;;;;;15.48;63.46;100316.03;5069412;28;20324;-64
2022/09/29 02:44:16;;;;;;;6.50;1.93;;;;;;;15.73;64.47;100309.91;5026612;28;20364;-66
2022/09/29 02:47:18;;;;;;;6.17;1.90;;;;;;;15.78;61.89;100307.94;5070243;28;20323;-67
2022/09/29 02:50:20;;;;;;;8.50;2.00;;;;;;;15.71;61.84;100314.34;5070849;28;20326;-67
2022/09/29 02:53:15;;;;;;;6.70;2.07;;;;;;;15.54;61.62;100305.25;5070385;28;20295;-64
2022/09/29 02:56:04;;;;;;;7.93;2.03;;;;;;;15.58;61.64;100294.63;5068107;28;20359;-64
2022/09/29 02:58:48;;;;;;;7.60;2.10;;;;;;;15.46;59.64;100286.25;5066557;28;20314;-64
2022/09/29 03:01:27;;;;;;;8.07;2.30;;;;;;;15.32;59.14;100307.81;5069815;28;20283;-62
2022/09/29 03:06:47;;;;;;;3.17;1.97;;;;;;;15.48;60.52;100273.88;5068148;28;20302;-63
2022/09/29 03:09:26;;;;;;;4.05;1.92;;;;;;;15.69;58.69;100281.91;5068401;28;20287;-63
2022/09/29 03:12:08;;;;;;;3.22;1.90;;;;;;;15.66;59.33;100274.97;5037765;28;20044;-63
2022/09/29 03:14:49;;;;;;;6.27;1.93;;;;;;;15.62;58.96;100275.16;5069674;28;20049;-63
2022/09/29 03:17:41;;;;;;;5.20;2.07;;;;;;;15.58;59.08;100273.56;5070111;28;20275;-62
2022/09/29 03:20:13;;;;;;;3.77;2.10;;;;;;;15.54;58.68;100251.72;5069036;28;20314;-64
2022/09/29 03:22:57;;;;;;;8.80;1.90;;;;;;;15.87;58.90;100257.53;5070013;28;20291;-64
2022/09/29 03:25:36;;;;;;;7.10;2.13;;;;;;;16.10;58.10;100255.78;5072721;28;20367;-64
2022/09/29 03:28:33;;;;;;;2.80;1.70;;;;;;;16.20;56.03;100257.16;5072671;28;20321;-64
2022/09/29 03:31:12;;;;;;;3.30;1.73;;;;;;;16.19;55.37;100271.25;5073357;28;20303;-65
2022/09/29 03:33:58;;;;;;;5.70;2.03;;;;;;;16.05;54.49;100273.53;5071399;28;20280;-64
2022/09/29 03:36:47;;;;;;;5.13;2.20;;;;;;;16.00;55.21;100271.13;5072663;28;20279;-63
2022/09/29 03:39:29;;;;;;;6.90;1.90;;;;;;;16.02;56.11;100263.13;5073771;28;20299;-63
2022/09/29 03:42:23;;;;;;;4.83;1.80;;;;;;;16.21;54.90;100261.50;5074583;28;20294;-64
2022/09/29 03:45:13;;;;;;;3.93;1.60;;;;;;;16.22;53.32;100260.56;5071532;28;20315;-63
2022/09/29 03:47:51;;;;;;;10.33;4.67;;;;;;;16.24;55.29;100252.59;5023668;28;20294;-63
2022/09/29 03:50:34;;;;;;;7.00;2.77;;;;;;;16.36;54.53;100252.97;5073824;28;20307;-64
2022/09/29 03:53:22;;;;;;;6.67;2.90;;;;;;;16.34;53.95;100227.59;5029463;28;20378;-65
2022/09/29 03:56:04;;;;;;;6.80;2.27;;;;;;;16.63;54.20;100250.13;5024481;28;20315;-64
2022/09/29 03:58:44;;;;;;;5.00;1.93;;;;;;;16.67;53.82;100241.16;5072288;28;20299;-65
2022/09/29 04:01:35;;;;;;;4.97;1.80;;;;;;;16.74;54.40;100237.31;5041566;28;20298;-64
2022/09/29 04:04:26;;;;;;;8.40;2.07;;;;;;;16.70;54.23;100230.50;5072636;28;20337;-65
2022/09/29 04:07:15;;;;;;;7.70;2.13;;;;;;;16.66;53.41;100234.16;5074063;28;20291;-64
2022/09/29 04:09:58;;;;;;;13.70;1.90;;;;;;;16.61;53.58;100225.59;5028659;28;20629;-65
2022/09/29 04:12:49;;;;;;;9.80;2.40;;;;;;;16.83;55.48;100222.09;5072952;28;20291;-64
2022/09/29 04:15:32;;;;;;;6.57;1.70;;;;;;;16.88;54.12;100201.63;5071757;28;20367;-63
2022/09/29 04:18:31;;;;;;;34.07;3.53;;;;;;;17.05;52.91;100220.22;5070481;28;20339;-65
2022/09/29 04:21:15;;;;;;;11.37;2.13;;;;;;;17.01;52.11;100216.00;5072510;28;20288;-64
2022/09/29 04:24:07;;;;;;;5.57;1.83;;;;;;;16.92;52.16;100216.38;5071512;28;20896;-64
2022/09/29 04:26:52;;;;;;;6.47;2.07;;;;;;;17.09;55.25;100210.38;5073315;28;20302;-63
2022/09/29 04:29:26;;;;;;;10.17;1.70;;;;;;;17.17;52.85;100219.69;5071629;28;20295;-64
2022/09/29 04:32:07;;;;;;;3.37;1.60;;;;;;;17.21;52.24;100208.03;5071853;28;20279;-63
2022/09/29 04:34:56;;;;;;;3.53;1.70;;;;;;;17.17;52.06;100222.34;5037972;28;20829;-63
2022/09/29 04:37:50;;;;;;;6.33;1.90;;;;;;;17.21;52.47;100205.41;5071459;28;20428;-63
2022/09/29 04:40:32;;;;;;;6.53;1.80;;;;;;;16.86;51.22;100138.34;5071648;28;20680;-64
2022/09/29 04:43:17;;;;;;;3.22;1.58;;;;;;;17.20;49.42;100198.44;5073450;28;20447;-64
2022/09/29 04:45:53;;;;;;;6.40;1.70;;;;;;;17.08;52.03;100183.13;5070573;28;20112;-63
2022/09/29 04:48:32;;;;;;;5.35;1.70;;;;;;;17.04;49.21;100192.09;5073139;28;20311;-64
2022/09/29 04:51:16;;;;;;;6.60;1.70;;;;;;;16.91;49.80;100186.50;5070826;28;20517;-63
2022/09/29 04:53:57;;;;;;;8.83;1.60;;;;;;;16.92;50.49;100197.91;5071572;28;20275;-64
2022/09/29 04:59:28;;;;;;;6.87;1.77;;;;;;;16.81;49.94;100193.09;5072315;28;20517;-65
2022/09/29 05:02:06;;;;;;;3.97;1.87;;;;;;;16.79;49.30;100197.59;5072939;28;20288;-63
2022/09/29 05:04:47;;;;;;;3.00;1.50;;;;;;;16.65;49.02;100184.97;5071242;28;20314;-64
2022/09/29 05:10:38;;;;;;;3.93;1.80;;;;;;;16.56;49.96;100206.47;5072851;28;20283;-65
2022/09/29 05:13:32;;;;;;;5.20;1.93;;;;;;;16.52;50.09;100215.41;5041892;28;20306;-64
2022/09/29 05:16:18;;;;;;;5.60;1.90;;;;;;;16.54;50.30;100205.66;5071211;28;20294;-64
2022/09/29 05:19:02;;;;;;;6.30;1.90;;;;;;;16.31;51.79;100138.91;5025505;28;20476;-64
2022/09/29 05:21:48;;;;;;;6.67;1.60;;;;;;;16.65;55.45;100198.16;5071893;28;20295;-64
2022/09/29 05:24:39;;;;;;;9.27;2.10;;;;;;;16.83;56.38;100193.06;5042919;28;20300;-63
2022/09/29 05:27:26;;;;;;;7.33;1.80;;;;;;;16.94;54.64;100201.34;5071740;28;20315;-64
2022/09/29 05:30:14;;;;;;;7.17;2.07;;;;;;;16.96;53.34;100199.50;5072282;28;20368;-64
2022/09/29 05:32:53;;;;;;;12.40;2.83;;;;;;;17.00;52.31;100201.94;5070388;28;20060;-64
2022/09/29 05:35:43;;;;;;;5.77;2.20;;;;;;;16.85;51.43;100196.47;5073107;28;20282;-64
2022/09/29 05:38:19;;;;;;;7.27;2.00;;;;;;;16.66;52.13;100197.22;5070790;28;20329;-64
2022/09/29 05:40:56;;;;;;;9.40;1.90;;;;;;;16.57;52.37;100208.16;5070139;28;20530;-65
2022/09/29 05:43:36;;;;;;;6.83;2.17;;;;;;;16.52;54.00;100210.13;5036373;28;20351;-66
2022/09/29 05:46:28;;;;;;;14.20;2.27;;;;;;;16.48;53.05;100208.56;5069994;28;20310;-65
2022/09/29 05:49:07;;;;;;;8.50;2.40;;;;;;;16.43;53.28;100210.53;5070640;28;20334;-66
2022/09/29 05:51:49;;;;;;;13.07;2.60;;;;;;;16.34;53.60;100209.97;5037742;28;20380;-65
2022/09/29 05:54:35;;;;;;;26.20;4.27;;;;;;;16.20;54.00;100204.44;5036755;28;20798;-65
2022/09/29 05:57:19;;;;;;;46.90;8.20;;;;;;;16.17;55.55;100215.06;5068161;28;20320;-64
2022/09/29 06:00:00;;;;;;;25.17;4.40;;;;;;;16.10;55.93;100198.66;5071213;28;20282;-64
2022/09/29 06:03:05;;;;;;;8.90;2.10;;;;;;;15.92;56.41;100173.88;5001780;28;20268;-65
2022/09/29 06:05:45;;;;;;;16.40;3.33;;;;;;;16.22;56.29;100231.56;5027951;28;20324;-65
2022/09/29 06:08:48;;;;;;;28.93;3.53;;;;;;;15.87;57.15;100175.84;5028071;28;20300;-66
2022/09/29 06:14:37;;;;;;;18.50;3.80;;;;;;;16.01;58.17;100235.06;5029502;28;20354;-64
2022/09/29 06:17:21;;;;;;;8.67;2.80;;;;;;;15.90;58.65;100236.34;5028694;28;20320;-65
2022/09/29 06:20:08;;;;;;;14.03;2.97;;;;;;;15.85;59.25;100238.31;5029622;28;20299;-64
2022/09/29 06:22:46;;;;;;;14.10;2.73;;;;;;;15.86;60.18;100237.38;5027666;28;20321;-64
2022/09/29 06:25:27;;;;;;;20.30;2.30;;;;;;;15.83;60.41;100242.78;4998982;28;20597;-63
2022/09/29 06:28:07;;;;;;;19.00;2.60;;;;;;;15.84;60.62;100236.56;5025832;28;20891;-64
2022/09/29 06:30:49;;;;;;;7.43;2.47;;;;;;;15.77;59.71;100229.81;5028652;28;21115;-64
2022/09/29 06:33:29;;;;;;;15.83;2.93;;;;;;;15.80;60.53;100236.75;4979822;28;20290;-64
2022/09/29 06:39:03;;;;;;;7.03;2.07;;;;;;;15.65;60.60;100243.41;5070312;28;19927;-63
2022/09/29 06:41:40;;;;;;;11.27;2.47;;;;;;;15.73;61.53;100246.69;5070258;28;20306;-63
2022/09/29 06:44:23;;;;;;;9.27;2.33;;;;;;;15.80;60.89;100258.69;5020687;28;20041;-63
2022/09/29 06:47:32;;;;;;;8.00;2.50;;;;;;;15.85;59.58;100256.75;5043603;28;20966;-63
2022/09/29 06:56:36;;;;;;;7.73;2.43;;;;;;;15.63;62.54;100268.97;5036412;28;20295;-63
2022/09/29 06:59:28;;;;;;;9.13;2.40;;;;;;;15.61;63.26;100273.44;5072125;28;20291;-64
2022/09/29 07:02:28;;;;;;;10.07;2.70;;;;;;;15.54;63.04;100278.91;5074325;28;20293;-63
2022/09/29 07:05:19;;;;;;;20.40;2.37;;;;;;;15.49;64.02;100286.13;5034138;28;20298;-64
2022/09/29 07:08:06;;;;;;;7.43;2.40;;;;;;;15.38;64.96;100288.31;5071577;28;20309;-64
2022/09/29 07:11:02;;;;;;;18.50;3.50;;;;;;;15.32;67.14;100283.25;5072194;28;20088;-63
2022/09/29 07:13:42;;;;;;;18.63;2.93;;;;;;;15.24;68.88;100295.81;5072110;28;20601;-64
2022/09/29 07:16:22;;;;;;;14.53;2.60;;;;;;;15.18;69.89;100301.31;5073269;28;20591;-63
2022/09/29 07:19:31;;;;;;;15.13;3.47;;;;;;;15.10;70.56;100305.06;5072831;28;20357;-64
2022/09/29 07:22:50;;;;;;;33.88;6.05;;;;;;;15.07;70.67;100310.41;5031777;28;20321;-65
2022/09/29 07:25:41;;;;;;;74.57;5.27;;;;;;;15.20;71.51;100325.78;5039713;28;20112;-64
2022/09/29 07:28:31;;;;;;;44.97;3.93;;;;;;;15.23;71.37;100326.56;5073622;28;20330;-63
2022/09/29 07:31:15;;;;;;;20.43;2.93;;;;;;;15.33;71.41;100332.38;5042856;28;20319;-63
2022/09/29 07:34:12;;;;;;;16.40;3.33;;;;;;;15.25;69.77;100339.66;5022905;28;20612;-63
2022/09/29 07:37:08;;;;;;;37.03;3.70;;;;;;;15.22;70.93;100337.13;5072987;28;20279;-63
2022/09/29 07:40:00;;;;;;;14.67;2.93;;;;;;;15.12;70.60;100343.63;5073112;28;20686;-64
2022/09/29 07:42:53;;;;;;;;;;;;;;;14.98;70.75;100339.69;5072809;28;20283;-63
2022/09/29 07:45:31;;;;;;;17.30;2.80;;;;;;;14.87;71.05;100344.44;5071919;28;19925;-63
2022/09/29 07:48:16;;;;;;;15.60;3.23;;;;;;;14.77;71.26;100345.66;5073541;28;20291;-63
2022/09/29 07:51:09;;;;;;;13.27;2.87;;;;;;;14.47;71.23;100319.38;5035843;28;20300;-66
2022/09/29 07:54:02;;;;;;;22.33;3.50;;;;;;;14.48;71.78;100346.53;5071706;28;20318;-63
2022/09/29 07:56:49;;;;;;;15.40;2.83;;;;;;;14.33;72.41;100347.88;5072902;28;20283;-63
2022/09/29 07:59:29;;;;;;;21.30;3.78;;;;;;;14.29;72.60;100351.50;5073670;28;20294;-65
2022/09/29 08:02:20;;;;;;;225.35;14.85;;;;;;;14.17;72.99;100355.34;5073829;28;20053;-63
2022/09/29 08:05:12;;;;;;;30.13;4.03;;;;;;;14.10;73.26;100367.78;5071411;28;20052;-64
2022/09/29 08:07:54;;;;;;;28.43;4.17;;;;;;;13.99;73.29;100369.91;5070960;28;20364;-63
2022/09/29 08:10:31;;;;;;;70.17;4.93;;;;;;;13.93;73.77;100372.72;5072419;28;20276;-64
2022/09/29 08:13:21;;;;;;;162.80;74.80;;;;;;;13.91;74.17;100377.13;5042850;28;20299;-64
2022/09/29 08:18:50;;;;;;;105.57;41.10;;;;;;;13.71;74.87;100375.06;5070251;28;20292;-64
2022/09/29 08:21:37;;;;;;;35.33;15.17;;;;;;;13.60;74.95;100377.97;5053854;28;20287;-65
2022/09/29 08:24:24;;;;;;;40.47;9.50;;;;;;;13.55;75.30;100374.59;5072133;28;20419;-64
2022/09/29 08:27:20;;;;;;;53.72;10.65;;;;;;;13.49;75.66;100369.53;5072155;28;20314;-64
2022/09/29 08:30:05;;;;;;;157.32;36.03;;;;;;;13.37;75.82;100366.31;5072105;28;20083;-64
2022/09/29 08:32:39;;;;;;;39.17;16.60;;;;;;;13.23;76.38;100357.94;5072364;28;20068;-64
2022/09/29 08:35:21;;;;;;;32.10;7.38;;;;;;;13.18;76.54;100365.06;5037814;28;20349;-63
2022/09/29 08:37:53;;;;;;;;;;;;;;;13.06;77.21;100362.75;5070870;28;20045;-63
2022/09/29 08:40:38;;;;;;;23.42;4.13;;;;;;;12.92;77.35;100368.31;5073390;28;19974;-63
2022/09/29 08:43:25;;;;;;;26.98;4.50;;;;;;;12.77;77.42;100380.03;5073010;28;20098;-63
2022/09/29 08:46:30;;;;;;;50.10;6.18;;;;;;;12.63;77.86;100371.63;5001544;28;20279;-63
2022/09/29 08:49:30;;;;;;;19.95;4.53;;;;;;;12.51;78.29;100386.75;5071989;28;20063;-62
2022/09/29 08:52:22;;;;;;;13.95;4.18;;;;;;;12.50;78.51;100381.50;5072101;28;20060;-63
2022/09/29 08:55:15;;;;;;;28.00;4.63;;;;;;;12.32;78.68;100377.56;5069004;28;20060;-63
2022/09/29 08:58:04;;;;;;;18.27;4.88;;;;;;;12.44;78.58;100384.28;5073610;28;20213;-63
2022/09/29 09:01:10;;;;;;;17.08;4.03;;;;;;;12.44;78.95;100398.25;5072734;28;20131;-65
2022/09/29 09:04:49;;;;;;;26.95;4.18;;;;;;;12.37;79.21;100401.91;5070240;28;20071;-63
2022/09/29 09:07:57;;;;;;;21.02;4.03;;;;;;;12.30;79.40;100395.06;5069282;28;20052;-63
2022/09/29 09:10:46;;;;;;;25.88;3.80;;;;;;;12.01;79.69;100364.25;5072841;28;20040;-63
2022/09/29 09:14:03;;;;;;;24.95;4.22;;;;;;;12.19;80.00;100397.06;5071293;28;20053;-64
2022/09/29 09:16:58;;;;;;;25.50;5.00;;;;;;;12.13;80.25;100397.16;5070368;28;20095;-63
2022/09/29 09:20:21;;;;;;;13.35;3.60;;;;;;;12.00;80.89;100397.41;5069805;28;20063;-63
2022/09/29 09:23:38;;;;;;;15.50;3.90;;;;;;;11.95;81.55;100388.78;5045091;28;20052;-63
2022/09/29 09:26:23;;;;;;;15.85;4.30;;;;;;;11.92;81.70;100404.56;5070079;28;20124;-63
2022/09/29 09:29:27;;;;;;;17.40;4.15;;;;;;;11.85;82.46;100418.63;5072386;28;20233;-63
2022/09/29 09:32:47;;;;;;;17.25;4.15;;;;;;;11.82;82.95;100431.78;5068259;28;20060;-63
2022/09/29 09:35:38;;;;;;;12.45;4.55;;;;;;;11.72;83.35;100427.63;5071571;28;20048;-63
2022/09/29 09:39:05;;;;;;;15.02;4.70;;;;;;;11.65;83.84;100425.09;5035880;28;20416;-63
2022/09/29 09:42:03;;;;;;;14.25;4.70;;;;;;;11.64;84.09;100431.25;5030698;28;20077;-62
2022/09/29 09:44:48;;;;;;;21.40;5.22;;;;;;;11.58;84.29;100436.59;5015135;28;20085;-62
2022/09/29 09:47:36;;;;;;;21.88;6.35;;;;;;;11.54;84.51;100440.16;4980145;28;20046;-63
2022/09/29 09:50:29;;;;;;;41.53;6.15;;;;;;;11.51;84.49;100428.88;5030021;28;20060;-62
2022/09/29 09:53:29;;;;;;;35.85;7.15;;;;;;;11.47;84.58;100446.38;5010350;28;20112;-62
2022/09/29 09:56:27;;;;;;;23.95;5.65;;;;;;;10.75;84.69;100341.19;5028969;28;20077;-63
2022/09/29 09:59:23;;;;;;;19.17;6.13;;;;;;;11.33;84.59;100445.72;5027656;28;20113;-63
2022/09/29 10:02:21;;;;;;;23.98;6.15;;;;;;;11.26;84.83;100446.72;5026946;28;20071;-62
2022/09/29 10:05:06;;;;;;;18.95;6.35;;;;;;;11.15;84.99;100446.91;5033361;28;20307;-63
2022/09/29 10:07:52;;;;;;;19.70;5.90;;;;;;;11.08;85.19;100446.13;5071124;28;20091;-62
2022/09/29 10:13:57;;;;;;;24.65;6.03;;;;;;;10.94;85.82;100464.66;5068720;28;20045;-63
2022/09/29 10:16:49;;;;;;;31.40;6.07;;;;;;;10.89;86.18;100465.59;5071275;28;20056;-63
2022/09/29 10:23:29;;;;;;;24.77;6.97;;;;;;;10.76;86.52;100470.16;5069894;28;20049;-63
2022/09/29 10:30:16;;;;;;;26.60;8.00;;;;;;;10.58;86.96;100460.78;5069736;28;20044;-63
2022/09/29 10:33:35;;;;;;;26.13;7.65;;;;;;;10.30;86.94;100429.78;5075469;28;20142;-63
2022/09/29 10:36:26;;;;;;;31.27;8.20;;;;;;;10.50;87.02;100467.88;5074953;28;20044;-63
2022/09/29 10:39:12;;;;;;;33.95;7.95;;;;;;;10.47;87.31;100473.13;4985984;28;20044;-62
2022/09/29 10:41:56;;;;;;;23.15;7.45;;;;;;;10.38;87.76;100468.88;5074938;28;20052;-63
2022/09/29 10:44:56;;;;;;;23.90;7.18;;;;;;;10.39;88.24;100469.75;5022277;28;20493;-63
2022/09/29 10:47:39;;;;;;;18.17;7.15;;;;;;;10.41;88.12;100470.59;5029998;28;20101;-63
2022/09/29 10:50:28;;;;;;;27.73;8.03;;;;;;;10.38;87.96;100463.66;5070336;28;20396;-63
2022/09/29 10:53:24;;;;;;;17.23;8.02;;;;;;;10.17;88.31;100449.09;5074160;28;20311;-62
2022/09/29 10:56:24;;;;;;;18.38;7.65;;;;;;;10.29;88.38;100474.22;5074126;28;20119;-64
2022/09/29 10:59:02;;;;;;;22.05;8.00;;;;;;;10.20;88.31;100479.53;5073636;28;20094;-63
2022/09/29 11:01:50;;;;;;;17.50;8.20;;;;;;;10.09;87.90;100477.03;5073211;28;20049;-63
2022/09/29 11:04:38;;;;;;;21.83;7.28;;;;;;;10.11;88.27;100475.28;5074799;28;20044;-63
2022/09/29 11:07:15;;;;;;;15.40;6.43;;;;;;;10.13;88.82;100486.53;5073248;28;21253;-63
2022/09/29 11:09:54;;;;;;;16.80;6.10;;;;;;;10.20;89.12;100496.03;5074941;28;20155;-63
2022/09/29 11:12:53;;;;;;;17.30;6.03;;;;;;;10.22;89.60;100489.06;5073519;28;20052;-63
2022/09/29 11:15:42;;;;;;;15.90;6.25;;;;;;;10.20;89.68;100475.16;5075366;28;20059;-63
2022/09/29 11:18:26;;;;;;;24.08;7.07;;;;;;;10.35;89.71;100495.03;5073860;28;20087;-64
2022/09/29 11:21:18;;;;;;;13.05;5.18;;;;;;;10.47;89.98;100504.50;5074849;28;20044;-63
2022/09/29 11:24:16;;;;;;;14.07;5.32;;;;;;;10.58;90.18;100502.59;5041588;28;20331;-63
2022/09/29 11:27:03;;;;;;;18.45;5.63;;;;;;;10.22;89.70;100436.84;5073591;28;20060;-63
2022/09/29 11:29:52;;;;;;;15.77;5.97;;;;;;;10.66;89.77;100506.00;5074268;28;20052;-64
2022/09/29 11:36:23;;;;;;;12.15;5.63;;;;;;;10.75;89.30;100495.41;5072924;28;20594;-63
2022/09/29 11:39:14;;;;;;;12.30;4.68;;;;;;;10.95;89.61;100523.88;5074499;28;20036;-64
2022/09/29 11:42:25;;;;;;;22.80;5.50;;;;;;;11.06;89.08;100529.00;5073388;28;20265;-64
2022/09/29 11:45:16;;;;;;;;;;;;;;;11.13;88.75;100522.78;5072827;28;20150;-63
2022/09/29 11:48:30;;;;;;;12.15;4.82;;;;;;;11.12;88.54;100536.72;5073893;28;19936;-63
2022/09/29 11:51:31;;;;;;;12.32;4.43;;;;;;;11.11;88.44;100537.63;5072830;28;20068;-63
2022/09/29 11:54:57;;;;;;;10.30;5.10;;;;;;;11.09;88.80;100531.56;5057168;28;20049;-64
2022/09/29 11:57:51;;;;;;;20.35;5.30;;;;;;;11.08;88.74;100535.03;5073401;28;20092;-64
2022/09/29 12:00:49;;;;;;;10.20;4.82;;;;;;;11.07;88.52;100532.47;5055413;28;20080;-63
2022/09/29 12:04:11;;;;;;;11.73;4.22;;;;;;;11.15;88.19;100531.44;5071875;28;20044;-64
2022/09/29 12:10:53;;;;;;;13.18;4.53;;;;;;;11.09;87.23;100505.41;5073539;28;20265;-64
2022/09/29 12:14:10;;;;;;;13.45;4.57;;;;;;;11.15;87.14;100520.13;5071274;28;20045;-63
2022/09/29 12:17:23;;;;;;;11.68;4.55;;;;;;;11.15;87.16;100531.44;5072228;28;20538;-63
2022/09/29 12:20:28;;;;;;;14.13;5.45;;;;;;;11.06;87.39;100526.38;5068143;28;20053;-63
2022/09/29 12:23:16;;;;;;;14.57;4.85;;;;;;;11.08;87.31;100527.19;5017006;28;20055;-62
2022/09/29 12:26:05;;;;;;;11.70;5.07;;;;;;;11.00;87.21;100510.75;5064020;28;20045;-63
2022/09/29 12:29:05;;;;;;;10.80;5.07;;;;;;;10.84;86.92;100483.13;5063283;28;20057;-62
2022/09/29 12:31:48;;;;;;;7.78;4.57;;;;;;;10.68;86.59;100462.38;5013841;28;20057;-61
2022/09/29 12:34:31;;;;;;;21.73;5.07;;;;;;;10.97;87.14;100516.03;5065140;28;20075;-61
2022/09/29 12:37:17;;;;;;;12.25;5.22;;;;;;;11.03;87.41;100536.84;5064768;28;20310;-61
2022/09/29 12:40:08;;;;;;;16.55;5.05;;;;;;;11.02;87.80;100540.38;5064885;28;20049;-61
2022/09/29 12:43:10;;;;;;;9.98;5.50;;;;;;;11.05;87.85;100534.22;5030557;28;20075;-62
2022/09/29 12:46:10;;;;;;;10.38;5.47;;;;;;;10.95;88.14;100523.03;5064797;28;20087;-62
2022/09/29 12:49:07;;;;;;;16.70;5.60;;;;;;;10.93;88.21;100522.19;5064494;28;20076;-61
2022/09/29 12:51:56;;;;;;;16.15;6.60;;;;;;;10.92;88.61;100528.31;5064602;28;20061;-61
2022/09/29 12:55:24;;;;;;;14.10;7.72;;;;;;;10.89;89.14;100517.91;5064284;28;20049;-61
2022/09/29 12:58:47;;;;;;;20.65;7.78;;;;;;;10.92;90.15;100510.00;5013525;28;20143;-61
2022/09/29 13:01:29;;;;;;;22.17;8.90;;;;;;;10.91;90.80;100505.66;5031258;28;20100;-63
2022/09/29 13:04:40;;;;;;;18.77;7.55;;;;;;;10.99;91.69;100514.25;5064190;28;20057;-61
2022/09/29 13:07:32;;;;;;;19.15;6.22;;;;;;;11.04;92.66;100512.44;5062798;28;20079;-62
2022/09/29 13:10:45;;;;;;;20.13;6.55;;;;;;;11.12;93.20;100520.19;5012937;28;20041;-62
2022/09/29 13:14:06;;;;;;;17.50;6.35;;;;;;;11.15;93.45;100515.75;5064216;28;20092;-63
2022/09/29 13:17:33;;;;;;;14.48;5.70;;;;;;;11.15;93.86;100510.53;5056783;28;20068;-62
2022/09/29 13:20:36;;;;;;;12.88;4.97;;;;;;;11.22;94.20;100517.41;5063661;28;20053;-63
2022/09/29 13:23:36;;;;;;;12.68;4.28;;;;;;;11.29;94.51;100522.56;5002545;28;20058;-63
2022/09/29 13:26:34;;;;;;;17.00;4.10;;;;;;;11.31;94.29;100526.00;5002025;28;20113;-63
2022/09/29 13:29:28;;;;;;;13.90;4.55;;;;;;;11.22;94.51;100506.94;4959452;28;20062;-66
2022/09/29 13:32:11;;;;;;;11.85;3.92;;;;;;;11.31;94.75;100526.88;4972435;28;20050;-64
2022/09/29 13:34:55;;;;;;;12.57;4.10;;;;;;;11.33;94.67;100518.97;5002239;28;20330;-63
2022/09/29 13:37:49;;;;;;;13.70;4.10;;;;;;;11.35;94.76;100532.91;5002449;28;20050;-63
2022/09/29 13:40:31;;;;;;;12.63;3.83;;;;;;;10.94;94.64;100469.03;5003107;28;20061;-62
2022/09/29 13:43:41;;;;;;;11.80;4.13;;;;;;;11.38;94.87;100522.38;5002604;28;20054;-62
2022/09/29 13:46:49;;;;;;;14.98;4.13;;;;;;;11.39;94.94;100529.38;5002553;28;20054;-62
2022/09/29 13:49:33;;;;;;;9.55;3.75;;;;;;;11.38;95.00;100517.16;4971102;28;20092;-62
2022/09/29 13:52:39;;;;;;;12.80;4.00;;;;;;;11.38;94.91;100511.94;5001707;28;20105;-64
2022/09/29 13:55:52;;;;;;;9.82;3.63;;;;;;;11.42;94.40;100513.63;4974124;28;20066;-61
2022/09/29 13:58:36;;;;;;;12.15;4.47;;;;;;;11.36;94.61;100517.19;5002071;28;20065;-62
2022/09/29 14:01:39;;;;;;;8.52;3.47;;;;;;;11.28;94.52;100499.88;5057758;28;20365;-63